sensor_id;sensor_type;location;lat;lon;timestamp;P1;durP1;ratioP1;P2;durP2;ratioP2
82372;SDS011;72000;42.828;23.382;2023-08-30T00:00:40;10.05;;;6.22;;
82372;SDS011;72000;42.828;23.382;2023-08-30T00:03:06;10.20;;;5.95;;
82372;SDS011;72000;42.828;23.382;2023-08-30T00:05:32;8.90;;;6.30;;
82372;SDS011;72000;42.828;23.382;2023-08-30T00:07:58;11.30;;;6.22;;
82372;SDS011;72000;42.828;23.382;2023-08-30T00:10:23;11.00;;;6.57;;
82372;SDS011;72000;42.828;23.382;2023-08-30T00:12:49;8.30;;;5.30;;
82372;SDS011;72000;42.828;23.382;2023-08-30T00:15:14;9.85;;;5.75;;
82372;SDS011;72000;42.828;23.382;2023-08-30T00:17:40;9.93;;;6.30;;
82372;SDS011;72000;42.828;23.382;2023-08-30T00:20:06;9.75;;;6.20;;
82372;SDS011;72000;42.828;23.382;2023-08-30T00:22:32;10.32;;;6.50;;
82372;SDS011;72000;42.828;23.382;2023-08-30T00:24:59;8.90;;;6.15;;
82372;SDS011;72000;42.828;23.382;2023-08-30T00:27:24;11.43;;;6.28;;
82372;SDS011;72000;42.828;23.382;2023-08-30T00:29:50;9.75;;;6.00;;
82372;SDS011;72000;42.828;23.382;2023-08-30T00:32:15;11.90;;;7.10;;
82372;SDS011;72000;42.828;23.382;2023-08-30T00:34:41;10.00;;;5.93;;
82372;SDS011;72000;42.828;23.382;2023-08-30T00:37:06;9.25;;;6.00;;
82372;SDS011;72000;42.828;23.382;2023-08-30T00:39:34;10.55;;;5.75;;
82372;SDS011;72000;42.828;23.382;2023-08-30T00:41:59;9.57;;;6.20;;
82372;SDS011;72000;42.828;23.382;2023-08-30T00:44:30;10.90;;;6.03;;
82372;SDS011;72000;42.828;23.382;2023-08-30T00:46:55;10.00;;;6.65;;
82372;SDS011;72000;42.828;23.382;2023-08-30T00:49:21;10.75;;;6.07;;
82372;SDS011;72000;42.828;23.382;2023-08-30T00:51:46;9.80;;;5.97;;
82372;SDS011;72000;42.828;23.382;2023-08-30T00:54:12;9.10;;;6.53;;
82372;SDS011;72000;42.828;23.382;2023-08-30T00:56:38;9.73;;;6.50;;
82372;SDS011;72000;42.828;23.382;2023-08-30T00:59:03;12.05;;;6.13;;
82372;SDS011;72000;42.828;23.382;2023-08-30T01:01:29;10.15;;;5.85;;
82372;SDS011;72000;42.828;23.382;2023-08-30T01:03:54;9.10;;;5.85;;
82372;SDS011;72000;42.828;23.382;2023-08-30T01:06:20;10.85;;;5.75;;
82372;SDS011;72000;42.828;23.382;2023-08-30T01:08:46;10.82;;;5.65;;
82372;SDS011;72000;42.828;23.382;2023-08-30T01:11:31;11.07;;;5.70;;
82372;SDS011;72000;42.828;23.382;2023-08-30T01:14:06;9.23;;;5.78;;
82372;SDS011;72000;42.828;23.382;2023-08-30T01:16:34;10.45;;;5.82;;
82372;SDS011;72000;42.828;23.382;2023-08-30T01:19:01;10.10;;;5.70;;
82372;SDS011;72000;42.828;23.382;2023-08-30T01:22:15;9.50;;;5.93;;
82372;SDS011;72000;42.828;23.382;2023-08-30T01:24:32;8.93;;;5.55;;
82372;SDS011;72000;42.828;23.382;2023-08-30T01:27:08;10.55;;;5.60;;
82372;SDS011;72000;42.828;23.382;2023-08-30T01:29:36;9.13;;;5.43;;
82372;SDS011;72000;42.828;23.382;2023-08-30T01:32:03;10.20;;;6.25;;
82372;SDS011;72000;42.828;23.382;2023-08-30T01:34:29;10.70;;;6.30;;
82372;SDS011;72000;42.828;23.382;2023-08-30T01:36:55;9.80;;;5.80;;
82372;SDS011;72000;42.828;23.382;2023-08-30T01:39:21;10.13;;;5.82;;
82372;SDS011;72000;42.828;23.382;2023-08-30T01:41:48;9.00;;;5.80;;
82372;SDS011;72000;42.828;23.382;2023-08-30T01:44:13;9.60;;;6.00;;
82372;SDS011;72000;42.828;23.382;2023-08-30T01:46:41;9.43;;;6.07;;
82372;SDS011;72000;42.828;23.382;2023-08-30T01:49:08;11.40;;;5.90;;
82372;SDS011;72000;42.828;23.382;2023-08-30T01:51:34;9.43;;;5.63;;
82372;SDS011;72000;42.828;23.382;2023-08-30T01:54:00;12.15;;;6.05;;
82372;SDS011;72000;42.828;23.382;2023-08-30T01:56:26;13.88;;;6.18;;
82372;SDS011;72000;42.828;23.382;2023-08-30T01:58:51;11.15;;;5.82;;
82372;SDS011;72000;42.828;23.382;2023-08-30T02:01:17;10.45;;;6.22;;
82372;SDS011;72000;42.828;23.382;2023-08-30T02:03:43;12.75;;;6.05;;
82372;SDS011;72000;42.828;23.382;2023-08-30T02:06:32;9.80;;;6.28;;
82372;SDS011;72000;42.828;23.382;2023-08-30T02:08:59;9.10;;;5.95;;
82372;SDS011;72000;42.828;23.382;2023-08-30T02:11:28;11.80;;;6.28;;
82372;SDS011;72000;42.828;23.382;2023-08-30T02:13:58;9.98;;;6.47;;
82372;SDS011;72000;42.828;23.382;2023-08-30T02:16:25;14.30;;;7.40;;
82372;SDS011;72000;42.828;23.382;2023-08-30T02:18:51;13.23;;;7.75;;
82372;SDS011;72000;42.828;23.382;2023-08-30T02:21:17;13.65;;;7.80;;
82372;SDS011;72000;42.828;23.382;2023-08-30T02:23:43;13.05;;;7.88;;
82372;SDS011;72000;42.828;23.382;2023-08-30T02:26:08;11.30;;;6.90;;
82372;SDS011;72000;42.828;23.382;2023-08-30T02:28:34;14.10;;;7.40;;
82372;SDS011;72000;42.828;23.382;2023-08-30T02:31:00;11.15;;;7.40;;
82372;SDS011;72000;42.828;23.382;2023-08-30T02:33:25;12.75;;;6.82;;
82372;SDS011;72000;42.828;23.382;2023-08-30T02:35:51;10.10;;;6.15;;
82372;SDS011;72000;42.828;23.382;2023-08-30T02:38:18;12.35;;;6.43;;
82372;SDS011;72000;42.828;23.382;2023-08-30T02:40:44;11.05;;;6.05;;
82372;SDS011;72000;42.828;23.382;2023-08-30T02:43:10;10.05;;;5.95;;
82372;SDS011;72000;42.828;23.382;2023-08-30T02:45:36;11.15;;;6.25;;
82372;SDS011;72000;42.828;23.382;2023-08-30T02:48:01;10.70;;;6.20;;
82372;SDS011;72000;42.828;23.382;2023-08-30T02:50:27;9.93;;;6.32;;
82372;SDS011;72000;42.828;23.382;2023-08-30T02:52:53;12.43;;;6.60;;
82372;SDS011;72000;42.828;23.382;2023-08-30T02:57:44;12.48;;;5.90;;
82372;SDS011;72000;42.828;23.382;2023-08-30T03:00:11;12.50;;;6.43;;
82372;SDS011;72000;42.828;23.382;2023-08-30T03:02:37;9.07;;;5.93;;
82372;SDS011;72000;42.828;23.382;2023-08-30T03:07:29;10.30;;;5.15;;
82372;SDS011;72000;42.828;23.382;2023-08-30T03:12:20;9.88;;;5.57;;
82372;SDS011;72000;42.828;23.382;2023-08-30T03:14:46;8.75;;;5.40;;
82372;SDS011;72000;42.828;23.382;2023-08-30T03:17:12;10.02;;;5.63;;
82372;SDS011;72000;42.828;23.382;2023-08-30T03:19:38;8.90;;;5.20;;
82372;SDS011;72000;42.828;23.382;2023-08-30T03:22:03;8.13;;;5.65;;
82372;SDS011;72000;42.828;23.382;2023-08-30T03:24:29;9.48;;;5.90;;
82372;SDS011;72000;42.828;23.382;2023-08-30T03:26:54;9.85;;;5.70;;
82372;SDS011;72000;42.828;23.382;2023-08-30T03:29:20;9.05;;;6.00;;
82372;SDS011;72000;42.828;23.382;2023-08-30T03:31:46;11.40;;;6.25;;
82372;SDS011;72000;42.828;23.382;2023-08-30T03:34:12;8.98;;;5.85;;
82372;SDS011;72000;42.828;23.382;2023-08-30T03:36:38;9.00;;;5.80;;
82372;SDS011;72000;42.828;23.382;2023-08-30T03:39:04;10.43;;;5.70;;
82372;SDS011;72000;42.828;23.382;2023-08-30T03:41:30;13.02;;;5.82;;
82372;SDS011;72000;42.828;23.382;2023-08-30T03:43:55;10.80;;;6.63;;
82372;SDS011;72000;42.828;23.382;2023-08-30T03:46:21;9.13;;;6.13;;
82372;SDS011;72000;42.828;23.382;2023-08-30T03:48:47;11.88;;;6.90;;
82372;SDS011;72000;42.828;23.382;2023-08-30T03:51:12;10.80;;;6.65;;
82372;SDS011;72000;42.828;23.382;2023-08-30T03:53:38;11.20;;;6.35;;
82372;SDS011;72000;42.828;23.382;2023-08-30T03:56:03;9.15;;;5.93;;
82372;SDS011;72000;42.828;23.382;2023-08-30T03:58:29;11.82;;;6.07;;
82372;SDS011;72000;42.828;23.382;2023-08-30T04:00:56;9.48;;;6.18;;
82372;SDS011;72000;42.828;23.382;2023-08-30T04:03:22;9.77;;;6.20;;
82372;SDS011;72000;42.828;23.382;2023-08-30T04:08:13;11.90;;;6.10;;
82372;SDS011;72000;42.828;23.382;2023-08-30T04:13:05;10.00;;;6.30;;
82372;SDS011;72000;42.828;23.382;2023-08-30T04:15:34;10.68;;;6.22;;
82372;SDS011;72000;42.828;23.382;2023-08-30T04:18:02;9.95;;;6.53;;
82372;SDS011;72000;42.828;23.382;2023-08-30T04:20:28;9.65;;;5.88;;
82372;SDS011;72000;42.828;23.382;2023-08-30T04:25:22;9.32;;;5.53;;
82372;SDS011;72000;42.828;23.382;2023-08-30T04:27:48;11.20;;;6.20;;
82372;SDS011;72000;42.828;23.382;2023-08-30T04:32:39;10.93;;;5.70;;
82372;SDS011;72000;42.828;23.382;2023-08-30T04:35:05;10.70;;;6.32;;
82372;SDS011;72000;42.828;23.382;2023-08-30T04:37:31;9.43;;;6.20;;
82372;SDS011;72000;42.828;23.382;2023-08-30T04:39:57;12.45;;;6.63;;
82372;SDS011;72000;42.828;23.382;2023-08-30T04:42:22;12.20;;;7.13;;
82372;SDS011;72000;42.828;23.382;2023-08-30T04:44:48;13.40;;;6.80;;
82372;SDS011;72000;42.828;23.382;2023-08-30T04:47:14;14.25;;;7.47;;
82372;SDS011;72000;42.828;23.382;2023-08-30T04:49:39;12.80;;;7.30;;
82372;SDS011;72000;42.828;23.382;2023-08-30T04:52:05;13.00;;;7.60;;
82372;SDS011;72000;42.828;23.382;2023-08-30T04:54:31;11.55;;;7.43;;
82372;SDS011;72000;42.828;23.382;2023-08-30T04:56:56;11.93;;;7.18;;
82372;SDS011;72000;42.828;23.382;2023-08-30T04:59:22;10.82;;;7.80;;
82372;SDS011;72000;42.828;23.382;2023-08-30T05:04:13;10.80;;;6.28;;
82372;SDS011;72000;42.828;23.382;2023-08-30T05:06:39;14.90;;;7.18;;
82372;SDS011;72000;42.828;23.382;2023-08-30T05:09:04;11.65;;;6.22;;
82372;SDS011;72000;42.828;23.382;2023-08-30T05:11:30;10.88;;;5.95;;
82372;SDS011;72000;42.828;23.382;2023-08-30T05:13:56;9.65;;;5.93;;
82372;SDS011;72000;42.828;23.382;2023-08-30T05:16:22;10.90;;;5.68;;
82372;SDS011;72000;42.828;23.382;2023-08-30T05:21:13;8.18;;;5.38;;
82372;SDS011;72000;42.828;23.382;2023-08-30T05:23:39;9.18;;;5.03;;
82372;SDS011;72000;42.828;23.382;2023-08-30T05:26:10;9.88;;;4.72;;
82372;SDS011;72000;42.828;23.382;2023-08-30T05:28:39;8.23;;;4.68;;
82372;SDS011;72000;42.828;23.382;2023-08-30T05:33:31;7.13;;;3.88;;
82372;SDS011;72000;42.828;23.382;2023-08-30T05:38:22;8.45;;;3.92;;
82372;SDS011;72000;42.828;23.382;2023-08-30T05:43:13;9.10;;;3.88;;
82372;SDS011;72000;42.828;23.382;2023-08-30T05:48:04;8.35;;;4.03;;
82372;SDS011;72000;42.828;23.382;2023-08-30T05:50:30;9.15;;;4.40;;
82372;SDS011;72000;42.828;23.382;2023-08-30T05:55:21;8.90;;;4.18;;
82372;SDS011;72000;42.828;23.382;2023-08-30T05:57:47;9.45;;;4.47;;
82372;SDS011;72000;42.828;23.382;2023-08-30T06:00:13;8.00;;;4.70;;
82372;SDS011;72000;42.828;23.382;2023-08-30T06:02:40;9.02;;;4.30;;
82372;SDS011;72000;42.828;23.382;2023-08-30T06:05:05;8.52;;;4.20;;
82372;SDS011;72000;42.828;23.382;2023-08-30T06:07:31;10.25;;;4.32;;
82372;SDS011;72000;42.828;23.382;2023-08-30T06:09:57;8.35;;;4.40;;
82372;SDS011;72000;42.828;23.382;2023-08-30T06:12:23;9.43;;;4.35;;
82372;SDS011;72000;42.828;23.382;2023-08-30T06:14:48;7.97;;;4.43;;
82372;SDS011;72000;42.828;23.382;2023-08-30T06:17:18;9.95;;;4.63;;
82372;SDS011;72000;42.828;23.382;2023-08-30T06:19:44;9.35;;;4.22;;
82372;SDS011;72000;42.828;23.382;2023-08-30T06:22:10;9.40;;;4.32;;
82372;SDS011;72000;42.828;23.382;2023-08-30T06:24:36;8.02;;;4.72;;
82372;SDS011;72000;42.828;23.382;2023-08-30T06:27:02;9.40;;;4.40;;
82372;SDS011;72000;42.828;23.382;2023-08-30T06:29:27;8.45;;;4.13;;
82372;SDS011;72000;42.828;23.382;2023-08-30T06:31:53;10.98;;;4.70;;
82372;SDS011;72000;42.828;23.382;2023-08-30T06:34:18;8.43;;;4.35;;
82372;SDS011;72000;42.828;23.382;2023-08-30T06:36:44;9.13;;;4.72;;
82372;SDS011;72000;42.828;23.382;2023-08-30T06:39:10;11.90;;;4.65;;
82372;SDS011;72000;42.828;23.382;2023-08-30T06:41:36;8.05;;;4.90;;
82372;SDS011;72000;42.828;23.382;2023-08-30T06:44:01;8.80;;;4.72;;
82372;SDS011;72000;42.828;23.382;2023-08-30T06:46:27;11.00;;;5.25;;
82372;SDS011;72000;42.828;23.382;2023-08-30T06:48:53;10.30;;;5.38;;
82372;SDS011;72000;42.828;23.382;2023-08-30T06:51:18;9.75;;;4.95;;
82372;SDS011;72000;42.828;23.382;2023-08-30T06:53:44;9.30;;;4.90;;
82372;SDS011;72000;42.828;23.382;2023-08-30T06:56:09;9.98;;;5.13;;
82372;SDS011;72000;42.828;23.382;2023-08-30T06:58:35;10.45;;;5.57;;
82372;SDS011;72000;42.828;23.382;2023-08-30T07:01:00;9.63;;;5.32;;
82372;SDS011;72000;42.828;23.382;2023-08-30T07:03:28;11.27;;;5.55;;
82372;SDS011;72000;42.828;23.382;2023-08-30T07:05:54;10.98;;;5.22;;
82372;SDS011;72000;42.828;23.382;2023-08-30T07:08:19;12.65;;;4.97;;
82372;SDS011;72000;42.828;23.382;2023-08-30T07:10:45;9.38;;;5.45;;
82372;SDS011;72000;42.828;23.382;2023-08-30T07:13:11;9.70;;;5.18;;
82372;SDS011;72000;42.828;23.382;2023-08-30T07:15:38;11.00;;;5.40;;
82372;SDS011;72000;42.828;23.382;2023-08-30T07:18:05;10.65;;;5.40;;
82372;SDS011;72000;42.828;23.382;2023-08-30T07:20:31;10.75;;;5.47;;
82372;SDS011;72000;42.828;23.382;2023-08-30T07:22:57;10.18;;;5.85;;
82372;SDS011;72000;42.828;23.382;2023-08-30T07:25:22;8.45;;;5.18;;
82372;SDS011;72000;42.828;23.382;2023-08-30T07:27:49;10.30;;;5.32;;
82372;SDS011;72000;42.828;23.382;2023-08-30T07:30:15;8.93;;;5.07;;
82372;SDS011;72000;42.828;23.382;2023-08-30T07:32:40;10.30;;;6.10;;
82372;SDS011;72000;42.828;23.382;2023-08-30T07:35:06;10.45;;;5.72;;
82372;SDS011;72000;42.828;23.382;2023-08-30T07:37:32;11.02;;;5.65;;
82372;SDS011;72000;42.828;23.382;2023-08-30T07:39:57;9.07;;;5.00;;
82372;SDS011;72000;42.828;23.382;2023-08-30T07:42:23;10.75;;;5.45;;
82372;SDS011;72000;42.828;23.382;2023-08-30T07:44:49;11.05;;;4.93;;
82372;SDS011;72000;42.828;23.382;2023-08-30T07:47:14;9.30;;;5.38;;
82372;SDS011;72000;42.828;23.382;2023-08-30T07:49:40;9.40;;;5.35;;
82372;SDS011;72000;42.828;23.382;2023-08-30T07:52:06;11.75;;;5.20;;
82372;SDS011;72000;42.828;23.382;2023-08-30T07:54:36;9.50;;;5.32;;
82372;SDS011;72000;42.828;23.382;2023-08-30T07:57:02;9.23;;;5.32;;
82372;SDS011;72000;42.828;23.382;2023-08-30T07:59:29;10.02;;;4.93;;
82372;SDS011;72000;42.828;23.382;2023-08-30T08:01:55;10.00;;;5.28;;
82372;SDS011;72000;42.828;23.382;2023-08-30T08:04:21;8.13;;;5.18;;
82372;SDS011;72000;42.828;23.382;2023-08-30T08:06:47;11.90;;;5.32;;
82372;SDS011;72000;42.828;23.382;2023-08-30T08:09:12;9.30;;;5.03;;
82372;SDS011;72000;42.828;23.382;2023-08-30T08:11:38;8.30;;;4.95;;
82372;SDS011;72000;42.828;23.382;2023-08-30T08:14:08;9.68;;;4.97;;
82372;SDS011;72000;42.828;23.382;2023-08-30T08:16:37;9.35;;;5.05;;
82372;SDS011;72000;42.828;23.382;2023-08-30T08:19:03;8.43;;;4.35;;
82372;SDS011;72000;42.828;23.382;2023-08-30T08:21:29;9.73;;;5.05;;
82372;SDS011;72000;42.828;23.382;2023-08-30T08:23:54;7.55;;;4.38;;
82372;SDS011;72000;42.828;23.382;2023-08-30T08:26:20;9.10;;;4.30;;
82372;SDS011;72000;42.828;23.382;2023-08-30T08:28:46;8.07;;;4.60;;
82372;SDS011;72000;42.828;23.382;2023-08-30T08:31:11;9.65;;;4.93;;
82372;SDS011;72000;42.828;23.382;2023-08-30T08:33:37;8.63;;;4.45;;
82372;SDS011;72000;42.828;23.382;2023-08-30T08:36:03;8.02;;;4.30;;
82372;SDS011;72000;42.828;23.382;2023-08-30T08:38:29;6.78;;;4.03;;
82372;SDS011;72000;42.828;23.382;2023-08-30T08:41:00;7.28;;;4.05;;
82372;SDS011;72000;42.828;23.382;2023-08-30T08:43:28;8.48;;;4.32;;
82372;SDS011;72000;42.828;23.382;2023-08-30T08:45:56;8.00;;;4.00;;
82372;SDS011;72000;42.828;23.382;2023-08-30T08:48:28;9.95;;;3.92;;
82372;SDS011;72000;42.828;23.382;2023-08-30T08:50:54;8.35;;;4.10;;
82372;SDS011;72000;42.828;23.382;2023-08-30T08:53:21;6.95;;;3.83;;
82372;SDS011;72000;42.828;23.382;2023-08-30T08:55:47;7.50;;;3.97;;
82372;SDS011;72000;42.828;23.382;2023-08-30T08:58:14;6.80;;;3.72;;
82372;SDS011;72000;42.828;23.382;2023-08-30T09:00:40;7.78;;;4.18;;
82372;SDS011;72000;42.828;23.382;2023-08-30T09:03:08;8.65;;;3.70;;
82372;SDS011;72000;42.828;23.382;2023-08-30T09:05:35;7.38;;;3.53;;
82372;SDS011;72000;42.828;23.382;2023-08-30T09:08:02;8.20;;;3.83;;
82372;SDS011;72000;42.828;23.382;2023-08-30T09:10:31;7.43;;;3.53;;
82372;SDS011;72000;42.828;23.382;2023-08-30T09:12:57;6.97;;;3.22;;
82372;SDS011;72000;42.828;23.382;2023-08-30T09:15:30;7.13;;;3.20;;
82372;SDS011;72000;42.828;23.382;2023-08-30T09:17:57;6.03;;;2.80;;
82372;SDS011;72000;42.828;23.382;2023-08-30T09:20:22;5.97;;;3.00;;
82372;SDS011;72000;42.828;23.382;2023-08-30T09:22:48;9.18;;;3.13;;
82372;SDS011;72000;42.828;23.382;2023-08-30T09:25:25;10.20;;;3.13;;
82372;SDS011;72000;42.828;23.382;2023-08-30T09:28:00;8.85;;;3.22;;
82372;SDS011;72000;42.828;23.382;2023-08-30T09:30:26;6.90;;;3.13;;
82372;SDS011;72000;42.828;23.382;2023-08-30T09:32:52;6.60;;;3.58;;
82372;SDS011;72000;42.828;23.382;2023-08-30T09:35:18;7.50;;;3.50;;
82372;SDS011;72000;42.828;23.382;2023-08-30T09:37:44;7.22;;;3.35;;
82372;SDS011;72000;42.828;23.382;2023-08-30T09:40:10;5.78;;;3.40;;
82372;SDS011;72000;42.828;23.382;2023-08-30T09:42:45;6.63;;;3.28;;
82372;SDS011;72000;42.828;23.382;2023-08-30T09:45:17;7.32;;;3.40;;
82372;SDS011;72000;42.828;23.382;2023-08-30T09:47:49;5.70;;;3.00;;
82372;SDS011;72000;42.828;23.382;2023-08-30T09:50:18;6.53;;;3.00;;
82372;SDS011;72000;42.828;23.382;2023-08-30T09:52:48;6.18;;;2.95;;
82372;SDS011;72000;42.828;23.382;2023-08-30T09:55:14;7.22;;;3.00;;
82372;SDS011;72000;42.828;23.382;2023-08-30T09:57:41;6.53;;;3.08;;
82372;SDS011;72000;42.828;23.382;2023-08-30T10:00:09;8.45;;;3.38;;
82372;SDS011;72000;42.828;23.382;2023-08-30T10:02:37;5.57;;;3.00;;
82372;SDS011;72000;42.828;23.382;2023-08-30T10:05:07;6.43;;;3.13;;
82372;SDS011;72000;42.828;23.382;2023-08-30T10:07:35;5.88;;;3.03;;
82372;SDS011;72000;42.828;23.382;2023-08-30T10:10:05;7.38;;;2.95;;
82372;SDS011;72000;42.828;23.382;2023-08-30T10:12:31;5.95;;;3.55;;
82372;SDS011;72000;42.828;23.382;2023-08-30T10:14:57;6.85;;;3.30;;
82372;SDS011;72000;42.828;23.382;2023-08-30T10:17:23;7.05;;;3.03;;
82372;SDS011;72000;42.828;23.382;2023-08-30T10:19:53;6.80;;;3.22;;
82372;SDS011;72000;42.828;23.382;2023-08-30T10:22:19;6.35;;;3.13;;
82372;SDS011;72000;42.828;23.382;2023-08-30T10:24:46;7.90;;;3.65;;
82372;SDS011;72000;42.828;23.382;2023-08-30T10:27:15;6.43;;;3.72;;
82372;SDS011;72000;42.828;23.382;2023-08-30T10:29:42;7.05;;;3.40;;
82372;SDS011;72000;42.828;23.382;2023-08-30T10:32:09;6.28;;;3.28;;
82372;SDS011;72000;42.828;23.382;2023-08-30T10:34:35;6.72;;;3.25;;
82372;SDS011;72000;42.828;23.382;2023-08-30T10:37:02;7.65;;;3.78;;
82372;SDS011;72000;42.828;23.382;2023-08-30T10:39:35;6.70;;;3.35;;
82372;SDS011;72000;42.828;23.382;2023-08-30T10:44:56;6.25;;;2.92;;
82372;SDS011;72000;42.828;23.382;2023-08-30T10:47:27;7.10;;;3.42;;
82372;SDS011;72000;42.828;23.382;2023-08-30T10:49:54;7.32;;;3.67;;
82372;SDS011;72000;42.828;23.382;2023-08-30T10:52:21;8.73;;;3.47;;
82372;SDS011;72000;42.828;23.382;2023-08-30T10:54:47;6.38;;;3.33;;
82372;SDS011;72000;42.828;23.382;2023-08-30T10:57:19;8.30;;;3.60;;
82372;SDS011;72000;42.828;23.382;2023-08-30T11:02:32;7.78;;;3.50;;
82372;SDS011;72000;42.828;23.382;2023-08-30T11:04:58;7.22;;;3.90;;
82372;SDS011;72000;42.828;23.382;2023-08-30T11:07:25;7.18;;;3.60;;
82372;SDS011;72000;42.828;23.382;2023-08-30T11:09:51;7.60;;;3.75;;
82372;SDS011;72000;42.828;23.382;2023-08-30T11:12:17;11.75;;;4.13;;
82372;SDS011;72000;42.828;23.382;2023-08-30T11:14:43;8.57;;;4.50;;
82372;SDS011;72000;42.828;23.382;2023-08-30T11:17:09;11.18;;;4.28;;
82372;SDS011;72000;42.828;23.382;2023-08-30T11:19:35;10.38;;;4.35;;
82372;SDS011;72000;42.828;23.382;2023-08-30T11:22:01;9.93;;;3.78;;
82372;SDS011;72000;42.828;23.382;2023-08-30T11:24:27;8.00;;;4.22;;
82372;SDS011;72000;42.828;23.382;2023-08-30T11:26:53;6.70;;;4.03;;
82372;SDS011;72000;42.828;23.382;2023-08-30T11:29:19;8.15;;;4.35;;
82372;SDS011;72000;42.828;23.382;2023-08-30T11:31:44;7.75;;;4.93;;
82372;SDS011;72000;42.828;23.382;2023-08-30T11:34:10;9.55;;;4.38;;
82372;SDS011;72000;42.828;23.382;2023-08-30T11:36:36;7.80;;;4.00;;
82372;SDS011;72000;42.828;23.382;2023-08-30T11:39:02;7.25;;;4.40;;
82372;SDS011;72000;42.828;23.382;2023-08-30T11:41:28;8.32;;;3.83;;
82372;SDS011;72000;42.828;23.382;2023-08-30T11:43:55;7.95;;;3.97;;
82372;SDS011;72000;42.828;23.382;2023-08-30T11:46:20;7.68;;;4.18;;
82372;SDS011;72000;42.828;23.382;2023-08-30T11:48:47;9.23;;;4.20;;
82372;SDS011;72000;42.828;23.382;2023-08-30T11:51:13;8.10;;;4.15;;
82372;SDS011;72000;42.828;23.382;2023-08-30T11:53:39;7.50;;;4.13;;
82372;SDS011;72000;42.828;23.382;2023-08-30T11:56:06;7.50;;;4.07;;
82372;SDS011;72000;42.828;23.382;2023-08-30T11:58:32;7.55;;;3.70;;
82372;SDS011;72000;42.828;23.382;2023-08-30T12:00:59;8.50;;;4.32;;
82372;SDS011;72000;42.828;23.382;2023-08-30T12:03:28;6.22;;;3.78;;
82372;SDS011;72000;42.828;23.382;2023-08-30T12:05:54;7.78;;;4.15;;
82372;SDS011;72000;42.828;23.382;2023-08-30T12:08:21;7.45;;;4.13;;
82372;SDS011;72000;42.828;23.382;2023-08-30T12:10:48;7.10;;;3.88;;
82372;SDS011;72000;42.828;23.382;2023-08-30T12:13:23;6.28;;;3.75;;
82372;SDS011;72000;42.828;23.382;2023-08-30T12:15:57;6.70;;;4.00;;
82372;SDS011;72000;42.828;23.382;2023-08-30T12:18:24;7.25;;;4.25;;
82372;SDS011;72000;42.828;23.382;2023-08-30T12:20:54;7.15;;;3.60;;
82372;SDS011;72000;42.828;23.382;2023-08-30T12:23:23;6.15;;;3.72;;
82372;SDS011;72000;42.828;23.382;2023-08-30T12:26:30;9.57;;;3.85;;
82372;SDS011;72000;42.828;23.382;2023-08-30T12:28:42;6.85;;;3.83;;
82372;SDS011;72000;42.828;23.382;2023-08-30T12:31:10;6.07;;;4.20;;
82372;SDS011;72000;42.828;23.382;2023-08-30T12:33:37;8.05;;;4.00;;
82372;SDS011;72000;42.828;23.382;2023-08-30T12:36:02;6.60;;;4.30;;
82372;SDS011;72000;42.828;23.382;2023-08-30T12:38:29;7.50;;;4.13;;
82372;SDS011;72000;42.828;23.382;2023-08-30T12:40:55;6.93;;;4.10;;
82372;SDS011;72000;42.828;23.382;2023-08-30T12:43:22;8.15;;;4.22;;
82372;SDS011;72000;42.828;23.382;2023-08-30T12:45:48;6.35;;;3.83;;
82372;SDS011;72000;42.828;23.382;2023-08-30T12:48:15;6.07;;;3.72;;
82372;SDS011;72000;42.828;23.382;2023-08-30T12:50:47;7.28;;;4.00;;
82372;SDS011;72000;42.828;23.382;2023-08-30T12:53:13;6.72;;;3.75;;
82372;SDS011;72000;42.828;23.382;2023-08-30T12:55:41;9.02;;;3.97;;
82372;SDS011;72000;42.828;23.382;2023-08-30T12:58:08;8.27;;;4.18;;
82372;SDS011;72000;42.828;23.382;2023-08-30T13:00:34;6.07;;;4.07;;
82372;SDS011;72000;42.828;23.382;2023-08-30T13:03:00;7.93;;;4.38;;
82372;SDS011;72000;42.828;23.382;2023-08-30T13:05:26;7.55;;;4.32;;
82372;SDS011;72000;42.828;23.382;2023-08-30T13:07:51;6.53;;;3.80;;
82372;SDS011;72000;42.828;23.382;2023-08-30T13:10:17;8.30;;;4.22;;
82372;SDS011;72000;42.828;23.382;2023-08-30T13:12:43;7.53;;;3.90;;
82372;SDS011;72000;42.828;23.382;2023-08-30T13:15:09;8.73;;;4.25;;
82372;SDS011;72000;42.828;23.382;2023-08-30T13:17:35;8.07;;;4.53;;
82372;SDS011;72000;42.828;23.382;2023-08-30T13:20:01;7.63;;;4.00;;
82372;SDS011;72000;42.828;23.382;2023-08-30T13:22:27;6.63;;;4.03;;
82372;SDS011;72000;42.828;23.382;2023-08-30T13:24:53;6.20;;;3.75;;
82372;SDS011;72000;42.828;23.382;2023-08-30T13:27:19;6.03;;;3.67;;
82372;SDS011;72000;42.828;23.382;2023-08-30T13:29:45;8.40;;;3.80;;
82372;SDS011;72000;42.828;23.382;2023-08-30T13:32:11;7.38;;;3.80;;
82372;SDS011;72000;42.828;23.382;2023-08-30T13:34:36;7.03;;;3.63;;
82372;SDS011;72000;42.828;23.382;2023-08-30T13:37:02;8.30;;;3.70;;
82372;SDS011;72000;42.828;23.382;2023-08-30T13:39:28;6.53;;;3.95;;
82372;SDS011;72000;42.828;23.382;2023-08-30T13:41:54;8.30;;;4.13;;
82372;SDS011;72000;42.828;23.382;2023-08-30T13:44:20;7.22;;;3.50;;
82372;SDS011;72000;42.828;23.382;2023-08-30T13:46:45;6.53;;;3.40;;
82372;SDS011;72000;42.828;23.382;2023-08-30T13:49:14;6.25;;;3.70;;
82372;SDS011;72000;42.828;23.382;2023-08-30T13:51:39;6.60;;;3.65;;
82372;SDS011;72000;42.828;23.382;2023-08-30T13:54:05;6.15;;;3.42;;
82372;SDS011;72000;42.828;23.382;2023-08-30T13:56:31;5.40;;;3.47;;
82372;SDS011;72000;42.828;23.382;2023-08-30T13:58:57;6.47;;;3.50;;
82372;SDS011;72000;42.828;23.382;2023-08-30T14:01:22;5.38;;;3.38;;
82372;SDS011;72000;42.828;23.382;2023-08-30T14:03:48;5.10;;;3.22;;
82372;SDS011;72000;42.828;23.382;2023-08-30T14:06:14;6.88;;;3.40;;
82372;SDS011;72000;42.828;23.382;2023-08-30T14:08:40;6.85;;;3.40;;
82372;SDS011;72000;42.828;23.382;2023-08-30T14:11:06;6.40;;;3.30;;
82372;SDS011;72000;42.828;23.382;2023-08-30T14:13:31;7.07;;;3.53;;
82372;SDS011;72000;42.828;23.382;2023-08-30T14:16:03;5.30;;;3.03;;
82372;SDS011;72000;42.828;23.382;2023-08-30T14:18:29;6.63;;;3.50;;
82372;SDS011;72000;42.828;23.382;2023-08-30T14:20:55;6.95;;;3.42;;
82372;SDS011;72000;42.828;23.382;2023-08-30T14:23:25;5.75;;;3.33;;
82372;SDS011;72000;42.828;23.382;2023-08-30T14:25:57;7.80;;;3.38;;
82372;SDS011;72000;42.828;23.382;2023-08-30T14:28:33;6.90;;;3.05;;
82372;SDS011;72000;42.828;23.382;2023-08-30T14:30:59;6.85;;;3.33;;
82372;SDS011;72000;42.828;23.382;2023-08-30T14:33:25;5.88;;;3.60;;
82372;SDS011;72000;42.828;23.382;2023-08-30T14:35:51;7.88;;;3.25;;
82372;SDS011;72000;42.828;23.382;2023-08-30T14:38:16;5.75;;;3.30;;
82372;SDS011;72000;42.828;23.382;2023-08-30T14:40:42;5.90;;;3.30;;
82372;SDS011;72000;42.828;23.382;2023-08-30T14:43:09;5.70;;;3.13;;
82372;SDS011;72000;42.828;23.382;2023-08-30T14:45:35;5.30;;;3.10;;
82372;SDS011;72000;42.828;23.382;2023-08-30T14:48:01;6.00;;;3.25;;
82372;SDS011;72000;42.828;23.382;2023-08-30T14:50:26;6.55;;;3.13;;
82372;SDS011;72000;42.828;23.382;2023-08-30T14:52:52;6.70;;;3.28;;
82372;SDS011;72000;42.828;23.382;2023-08-30T14:55:20;6.20;;;3.38;;
82372;SDS011;72000;42.828;23.382;2023-08-30T14:57:46;5.72;;;2.97;;
82372;SDS011;72000;42.828;23.382;2023-08-30T15:00:12;8.73;;;3.35;;
82372;SDS011;72000;42.828;23.382;2023-08-30T15:02:37;6.03;;;3.28;;
82372;SDS011;72000;42.828;23.382;2023-08-30T15:05:03;6.05;;;3.25;;
82372;SDS011;72000;42.828;23.382;2023-08-30T15:07:29;6.65;;;2.97;;